sensor_id;sensor_type;location;lat;lon;timestamp;pressure;altitude;pressure_sealevel;temperature;humidity
72925;BME280;61070;50.794;7.054;2022-10-16T00:00:31;100578.72;;;14.06;98.46
72925;BME280;61070;50.794;7.054;2022-10-16T00:02:56;100579.56;;;14.08;98.26
72925;BME280;61070;50.794;7.054;2022-10-16T00:05:22;100584.88;;;14.08;98.75
72925;BME280;61070;50.794;7.054;2022-10-16T00:07:47;100582.22;;;14.08;98.59
72925;BME280;61070;50.794;7.054;2022-10-16T00:10:12;100579.59;;;14.07;98.64
72925;BME280;61070;50.794;7.054;2022-10-16T00:12:38;100583.28;;;14.01;98.59
72925;BME280;61070;50.794;7.054;2022-10-16T00:15:04;100577.28;;;13.94;98.91
72925;BME280;61070;50.794;7.054;2022-10-16T00:17:29;100576.41;;;13.94;98.96
72925;BME280;61070;50.794;7.054;2022-10-16T00:19:54;100585.28;;;13.93;99.29
72925;BME280;61070;50.794;7.054;2022-10-16T00:22:20;100578.31;;;13.89;99.52
72925;BME280;61070;50.794;7.054;2022-10-16T00:24:45;100580.19;;;13.85;99.88
72925;BME280;61070;50.794;7.054;2022-10-16T00:27:10;100581.88;;;13.88;99.29
72925;BME280;61070;50.794;7.054;2022-10-16T00:29:35;100590.00;;;13.83;99.42
72925;BME280;61070;50.794;7.054;2022-10-16T00:32:01;100596.22;;;13.84;99.66
72925;BME280;61070;50.794;7.054;2022-10-16T00:34:26;100595.41;;;13.80;99.80
72925;BME280;61070;50.794;7.054;2022-10-16T00:36:51;100599.94;;;13.77;99.86
72925;BME280;61070;50.794;7.054;2022-10-16T00:39:17;100594.47;;;13.81;99.55
72925;BME280;61070;50.794;7.054;2022-10-16T00:41:42;100594.53;;;13.80;99.76
72925;BME280;61070;50.794;7.054;2022-10-16T00:44:42;100582.34;;;13.71;99.98
72925;BME280;61070;50.794;7.054;2022-10-16T00:47:15;100580.75;;;13.64;100.00
72925;BME280;61070;50.794;7.054;2022-10-16T00:49:42;100576.44;;;13.60;100.00
72925;BME280;61070;50.794;7.054;2022-10-16T00:52:08;100587.09;;;13.60;100.00
72925;BME280;61070;50.794;7.054;2022-10-16T00:54:33;100580.13;;;13.54;100.00
72925;BME280;61070;50.794;7.054;2022-10-16T00:57:05;100591.59;;;13.56;100.00
72925;BME280;61070;50.794;7.054;2022-10-16T00:59:36;100591.66;;;13.55;100.00
72925;BME280;61070;50.794;7.054;2022-10-16T01:02:03;100585.44;;;13.54;100.00
72925;BME280;61070;50.794;7.054;2022-10-16T01:04:35;100586.31;;;13.55;100.00
72925;BME280;61070;50.794;7.054;2022-10-16T01:13:14;100579.53;;;13.43;100.00
72925;BME280;61070;50.794;7.054;2022-10-16T01:15:34;100589.34;;;13.41;100.00
72925;BME280;61070;50.794;7.054;2022-10-16T01:18:24;100585.91;;;13.37;100.00
72925;BME280;61070;50.794;7.054;2022-10-16T01:23:26;100593.13;;;13.31;100.00
72925;BME280;61070;50.794;7.054;2022-10-16T01:26:07;100595.00;;;13.27;100.00
72925;BME280;61070;50.794;7.054;2022-10-16T01:28:40;100594.00;;;13.31;100.00
72925;BME280;61070;50.794;7.054;2022-10-16T01:31:07;100596.75;;;13.28;100.00
72925;BME280;61070;50.794;7.054;2022-10-16T01:33:42;100593.09;;;13.32;100.00
72925;BME280;61070;50.794;7.054;2022-10-16T01:36:30;100594.09;;;13.28;100.00
72925;BME280;61070;50.794;7.054;2022-10-16T01:39:00;100597.72;;;13.26;100.00
72925;BME280;61070;50.794;7.054;2022-10-16T01:41:39;100595.06;;;13.26;100.00
72925;BME280;61070;50.794;7.054;2022-10-16T01:44:10;100595.19;;;13.20;100.00
72925;BME280;61070;50.794;7.054;2022-10-16T01:46:37;100597.94;;;13.15;100.00
72925;BME280;61070;50.794;7.054;2022-10-16T01:49:05;100607.72;;;13.13;100.00
72925;BME280;61070;50.794;7.054;2022-10-16T01:51:32;100602.38;;;13.15;100.00
72925;BME280;61070;50.794;7.054;2022-10-16T01:54:00;100604.09;;;13.19;100.00
72925;BME280;61070;50.794;7.054;2022-10-16T01:56:27;100601.31;;;13.23;100.00
72925;BME280;61070;50.794;7.054;2022-10-16T01:59:01;100601.25;;;13.25;100.00
72925;BME280;61070;50.794;7.054;2022-10-16T02:01:31;100600.34;;;13.27;100.00
72925;BME280;61070;50.794;7.054;2022-10-16T02:04:12;100600.34;;;13.27;100.00
72925;BME280;61070;50.794;7.054;2022-10-16T02:06:39;100610.06;;;13.28;100.00
72925;BME280;61070;50.794;7.054;2022-10-16T02:09:05;100603.78;;;13.31;100.00
72925;BME280;61070;50.794;7.054;2022-10-16T02:11:30;100601.13;;;13.31;100.00
72925;BME280;61070;50.794;7.054;2022-10-16T02:14:01;100608.97;;;13.35;100.00
72925;BME280;61070;50.794;7.054;2022-10-16T02:16:39;100619.47;;;13.42;100.00
72925;BME280;61070;50.794;7.054;2022-10-16T02:19:06;100614.91;;;13.47;100.00
72925;BME280;61070;50.794;7.054;2022-10-16T02:26:43;100604.94;;;13.55;100.00
72925;BME280;61070;50.794;7.054;2022-10-16T02:29:15;100606.69;;;13.56;100.00
72925;BME280;61070;50.794;7.054;2022-10-16T02:31:46;100604.84;;;13.59;100.00
72925;BME280;61070;50.794;7.054;2022-10-16T02:34:16;100611.03;;;13.60;100.00
72925;BME280;61070;50.794;7.054;2022-10-16T02:36:44;100614.69;;;13.56;100.00
72925;BME280;61070;50.794;7.054;2022-10-16T02:39:11;100616.47;;;13.55;100.00
72925;BME280;61070;50.794;7.054;2022-10-16T02:41:37;100614.59;;;13.59;100.00
72925;BME280;61070;50.794;7.054;2022-10-16T02:44:02;100626.06;;;13.62;100.00
72925;BME280;61070;50.794;7.054;2022-10-16T02:46:28;100625.22;;;13.60;100.00
72925;BME280;61070;50.794;7.054;2022-10-16T02:48:53;100618.06;;;13.62;100.00
72925;BME280;61070;50.794;7.054;2022-10-16T02:51:18;100621.56;;;13.64;100.00
72925;BME280;61070;50.794;7.054;2022-10-16T02:53:43;100618.91;;;13.64;100.00
72925;BME280;61070;50.794;7.054;2022-10-16T02:56:09;100624.22;;;13.64;100.00
72925;BME280;61070;50.794;7.054;2022-10-16T02:58:34;100628.72;;;13.62;100.00
72925;BME280;61070;50.794;7.054;2022-10-16T03:00:59;100632.25;;;13.63;100.00
72925;BME280;61070;50.794;7.054;2022-10-16T03:03:25;100636.56;;;13.67;99.83
72925;BME280;61070;50.794;7.054;2022-10-16T03:05:51;100630.34;;;13.68;99.95
72925;BME280;61070;50.794;7.054;2022-10-16T03:08:16;100621.47;;;13.67;99.70
72925;BME280;61070;50.794;7.054;2022-10-16T03:10:41;100614.38;;;13.68;99.54
72925;BME280;61070;50.794;7.054;2022-10-16T03:13:06;100609.09;;;13.66;99.89
72925;BME280;61070;50.794;7.054;2022-10-16T03:15:32;100616.19;;;13.66;99.59
72925;BME280;61070;50.794;7.054;2022-10-16T03:17:58;100610.00;;;13.65;99.38
72925;BME280;61070;50.794;7.054;2022-10-16T03:20:23;100618.81;;;13.67;99.42
72925;BME280;61070;50.794;7.054;2022-10-16T03:22:49;100617.94;;;13.67;99.55
72925;BME280;61070;50.794;7.054;2022-10-16T03:25:14;100614.41;;;13.66;99.58
72925;BME280;61070;50.794;7.054;2022-10-16T03:27:39;100624.22;;;13.64;99.66
72925;BME280;61070;50.794;7.054;2022-10-16T03:30:05;100621.47;;;13.67;99.54
72925;BME280;61070;50.794;7.054;2022-10-16T03:32:31;100605.50;;;13.67;99.52
72925;BME280;61070;50.794;7.054;2022-10-16T03:34:56;100611.66;;;13.71;99.35
72925;BME280;61070;50.794;7.054;2022-10-16T03:37:22;100620.41;;;13.75;98.89
72925;BME280;61070;50.794;7.054;2022-10-16T03:39:47;100616.06;;;13.72;98.83
72925;BME280;61070;50.794;7.054;2022-10-16T03:42:12;100627.53;;;13.74;98.90
72925;BME280;61070;50.794;7.054;2022-10-16T03:44:37;100618.34;;;13.86;97.87
72925;BME280;61070;50.794;7.054;2022-10-16T03:47:03;100626.47;;;13.80;98.03
72925;BME280;61070;50.794;7.054;2022-10-16T03:49:28;100625.75;;;13.75;98.32
72925;BME280;61070;50.794;7.054;2022-10-16T03:51:54;100628.41;;;13.75;98.16
72925;BME280;61070;50.794;7.054;2022-10-16T03:54:20;100635.31;;;13.82;97.54
72925;BME280;61070;50.794;7.054;2022-10-16T03:56:47;100646.84;;;13.81;97.24
72925;BME280;61070;50.794;7.054;2022-10-16T03:59:12;100653.16;;;13.78;97.58
72925;BME280;61070;50.794;7.054;2022-10-16T04:01:37;100653.09;;;13.80;97.07
72925;BME280;61070;50.794;7.054;2022-10-16T04:04:03;100652.19;;;13.81;96.66
72925;BME280;61070;50.794;7.054;2022-10-16T04:06:28;100667.22;;;13.83;97.02
72925;BME280;61070;50.794;7.054;2022-10-16T04:08:53;100661.94;;;13.82;96.73
72925;BME280;61070;50.794;7.054;2022-10-16T04:11:18;100668.19;;;13.79;97.37
72925;BME280;61070;50.794;7.054;2022-10-16T04:13:44;100670.91;;;13.78;97.76
72925;BME280;61070;50.794;7.054;2022-10-16T04:16:10;100664.75;;;13.76;97.65
72925;BME280;61070;50.794;7.054;2022-10-16T04:18:36;100669.13;;;13.78;96.98
72925;BME280;61070;50.794;7.054;2022-10-16T04:21:05;100669.94;;;13.80;97.09
72925;BME280;61070;50.794;7.054;2022-10-16T04:23:31;100664.56;;;13.83;97.01
72925;BME280;61070;50.794;7.054;2022-10-16T04:25:56;100656.59;;;13.83;97.01
72925;BME280;61070;50.794;7.054;2022-10-16T04:28:22;100662.81;;;13.82;97.15
72925;BME280;61070;50.794;7.054;2022-10-16T04:30:47;100661.03;;;13.81;97.03
72925;BME280;61070;50.794;7.054;2022-10-16T04:33:12;100675.13;;;13.86;96.81
72925;BME280;61070;50.794;7.054;2022-10-16T04:35:38;100679.63;;;13.84;96.96
72925;BME280;61070;50.794;7.054;2022-10-16T04:38:03;100693.84;;;13.83;97.13
72925;BME280;61070;50.794;7.054;2022-10-16T04:40:28;100687.66;;;13.83;97.23
72925;BME280;61070;50.794;7.054;2022-10-16T04:42:54;100684.09;;;13.84;96.81
72925;BME280;61070;50.794;7.054;2022-10-16T04:45:19;100692.03;;;13.85;97.42
72925;BME280;61070;50.794;7.054;2022-10-16T04:47:44;100691.97;;;13.87;97.11
72925;BME280;61070;50.794;7.054;2022-10-16T04:50:10;100695.47;;;13.89;97.23
72925;BME280;61070;50.794;7.054;2022-10-16T04:52:35;100688.34;;;13.89;96.62
72925;BME280;61070;50.794;7.054;2022-10-16T04:55:01;100689.16;;;13.93;96.45
72925;BME280;61070;50.794;7.054;2022-10-16T04:57:28;100690.75;;;14.00;96.00
72925;BME280;61070;50.794;7.054;2022-10-16T04:59:54;100685.56;;;13.95;95.96
72925;BME280;61070;50.794;7.054;2022-10-16T05:02:20;100689.00;;;13.99;95.73
72925;BME280;61070;50.794;7.054;2022-10-16T05:04:45;100695.38;;;13.92;96.06
72925;BME280;61070;50.794;7.054;2022-10-16T05:07:11;100704.09;;;13.98;95.38
72925;BME280;61070;50.794;7.054;2022-10-16T05:09:36;100711.34;;;13.93;95.84
72925;BME280;61070;50.794;7.054;2022-10-16T05:12:01;100709.53;;;13.95;95.51
72925;BME280;61070;50.794;7.054;2022-10-16T05:14:28;100698.91;;;13.94;95.55
72925;BME280;61070;50.794;7.054;2022-10-16T05:16:54;100694.38;;;13.97;95.61
72925;BME280;61070;50.794;7.054;2022-10-16T05:19:19;100706.59;;;14.06;95.35
72925;BME280;61070;50.794;7.054;2022-10-16T05:21:44;100702.19;;;14.04;95.66
72925;BME280;61070;50.794;7.054;2022-10-16T05:24:10;100697.72;;;14.04;95.99
72925;BME280;61070;50.794;7.054;2022-10-16T05:26:35;100703.97;;;14.03;96.32
72925;BME280;61070;50.794;7.054;2022-10-16T05:29:00;100706.63;;;14.03;96.80
72925;BME280;61070;50.794;7.054;2022-10-16T05:31:25;100706.63;;;14.05;96.56
72925;BME280;61070;50.794;7.054;2022-10-16T05:33:51;100712.00;;;14.02;96.97
72925;BME280;61070;50.794;7.054;2022-10-16T05:36:16;100715.69;;;13.97;97.21
72925;BME280;61070;50.794;7.054;2022-10-16T05:38:43;100716.69;;;13.92;97.84
72925;BME280;61070;50.794;7.054;2022-10-16T05:41:10;100707.97;;;13.87;98.31
72925;BME280;61070;50.794;7.054;2022-10-16T05:43:35;100712.50;;;13.83;98.45
72925;BME280;61070;50.794;7.054;2022-10-16T05:46:03;100707.22;;;13.80;98.36
72925;BME280;61070;50.794;7.054;2022-10-16T05:48:29;100717.88;;;13.82;98.27
72925;BME280;61070;50.794;7.054;2022-10-16T05:51:03;100719.63;;;13.81;98.71
72925;BME280;61070;50.794;7.054;2022-10-16T05:53:31;100720.53;;;13.82;98.23
72925;BME280;61070;50.794;7.054;2022-10-16T05:55:57;100739.13;;;13.83;98.57
72925;BME280;61070;50.794;7.054;2022-10-16T05:58:24;100741.94;;;13.77;98.84
72925;BME280;61070;50.794;7.054;2022-10-16T06:00:59;100751.78;;;13.74;98.98
72925;BME280;61070;50.794;7.054;2022-10-16T06:03:25;100750.78;;;13.78;99.29
72925;BME280;61070;50.794;7.054;2022-10-16T06:05:50;100752.53;;;13.79;99.24
72925;BME280;61070;50.794;7.054;2022-10-16T06:08:16;100749.81;;;13.80;99.22
72925;BME280;61070;50.794;7.054;2022-10-16T06:10:42;100759.56;;;13.81;99.53
72925;BME280;61070;50.794;7.054;2022-10-16T06:13:09;100765.75;;;13.83;99.61
72925;BME280;61070;50.794;7.054;2022-10-16T06:15:34;100764.09;;;13.78;99.79
72925;BME280;61070;50.794;7.054;2022-10-16T06:17:59;100770.28;;;13.78;99.60
72925;BME280;61070;50.794;7.054;2022-10-16T06:20:25;100777.56;;;13.72;99.70
72925;BME280;61070;50.794;7.054;2022-10-16T06:22:51;100775.97;;;13.64;100.00
72925;BME280;61070;50.794;7.054;2022-10-16T06:25:16;100770.72;;;13.61;100.00
72925;BME280;61070;50.794;7.054;2022-10-16T06:27:41;100776.94;;;13.60;100.00
72925;BME280;61070;50.794;7.054;2022-10-16T06:30:07;100788.56;;;13.56;100.00
72925;BME280;61070;50.794;7.054;2022-10-16T06:32:33;100786.72;;;13.58;100.00
72925;BME280;61070;50.794;7.054;2022-10-16T06:34:58;100779.56;;;13.62;100.00
72925;BME280;61070;50.794;7.054;2022-10-16T06:37:23;100790.19;;;13.63;100.00
72925;BME280;61070;50.794;7.054;2022-10-16T06:39:50;100811.34;;;13.68;100.00
72925;BME280;61070;50.794;7.054;2022-10-16T06:42:17;100824.63;;;13.71;100.00
72925;BME280;61070;50.794;7.054;2022-10-16T06:44:42;100820.19;;;13.70;100.00
72925;BME280;61070;50.794;7.054;2022-10-16T06:47:08;100820.16;;;13.72;100.00
72925;BME280;61070;50.794;7.054;2022-10-16T06:49:33;100810.25;;;13.78;100.00
72925;BME280;61070;50.794;7.054;2022-10-16T06:51:58;100812.84;;;13.80;100.00
72925;BME280;61070;50.794;7.054;2022-10-16T06:54:23;100828.72;;;13.86;100.00
72925;BME280;61070;50.794;7.054;2022-10-16T06:56:51;100826.81;;;13.91;100.00
72925;BME280;61070;50.794;7.054;2022-10-16T06:59:16;100828.53;;;13.93;100.00
72925;BME280;61070;50.794;7.054;2022-10-16T07:01:41;100830.22;;;13.97;100.00
72925;BME280;61070;50.794;7.054;2022-10-16T07:04:07;100830.97;;;14.03;100.00
72925;BME280;61070;50.794;7.054;2022-10-16T07:06:33;100841.56;;;14.04;100.00
72925;BME280;61070;50.794;7.054;2022-10-16T07:09:01;100845.97;;;14.07;100.00
72925;BME280;61070;50.794;7.054;2022-10-16T07:11:26;100847.81;;;14.05;100.00
72925;BME280;61070;50.794;7.054;2022-10-16T07:13:52;100858.41;;;14.06;100.00
72925;BME280;61070;50.794;7.054;2022-10-16T07:16:19;100865.41;;;14.10;100.00
72925;BME280;61070;50.794;7.054;2022-10-16T07:18:46;100868.88;;;14.14;100.00
72925;BME280;61070;50.794;7.054;2022-10-16T07:21:15;100867.94;;;14.16;100.00
72925;BME280;61070;50.794;7.054;2022-10-16T07:23:41;100878.41;;;14.24;100.00
72925;BME280;61070;50.794;7.054;2022-10-16T07:26:07;100883.84;;;14.19;100.00
72925;BME280;61070;50.794;7.054;2022-10-16T07:28:33;100890.09;;;14.18;100.00
72925;BME280;61070;50.794;7.054;2022-10-16T07:31:04;100897.19;;;14.19;100.00
72925;BME280;61070;50.794;7.054;2022-10-16T07:33:30;100898.91;;;14.20;100.00
72925;BME280;61070;50.794;7.054;2022-10-16T07:35:56;100900.59;;;14.24;100.00
72925;BME280;61070;50.794;7.054;2022-10-16T07:38:21;100910.16;;;14.33;100.00
72925;BME280;61070;50.794;7.054;2022-10-16T07:40:48;100911.78;;;14.40;100.00
72925;BME280;61070;50.794;7.054;2022-10-16T07:43:13;100908.94;;;14.48;100.00
72925;BME280;61070;50.794;7.054;2022-10-16T07:45:48;100911.66;;;14.46;100.00
72925;BME280;61070;50.794;7.054;2022-10-16T07:48:15;100914.34;;;14.45;100.00
72925;BME280;61070;50.794;7.054;2022-10-16T07:50:40;100918.84;;;14.41;100.00
72925;BME280;61070;50.794;7.054;2022-10-16T07:53:06;100930.50;;;14.37;100.00
72925;BME280;61070;50.794;7.054;2022-10-16T07:55:31;100927.13;;;14.31;100.00
72925;BME280;61070;50.794;7.054;2022-10-16T07:57:57;100935.16;;;14.29;100.00
72925;BME280;61070;50.794;7.054;2022-10-16T08:00:22;100936.06;;;14.26;100.00
72925;BME280;61070;50.794;7.054;2022-10-16T08:02:47;100943.31;;;14.21;100.00
72925;BME280;61070;50.794;7.054;2022-10-16T08:05:12;100942.56;;;14.16;100.00
72925;BME280;61070;50.794;7.054;2022-10-16T08:07:38;100951.50;;;14.12;100.00
72925;BME280;61070;50.794;7.054;2022-10-16T08:10:03;100951.53;;;14.11;100.00
72925;BME280;61070;50.794;7.054;2022-10-16T08:12:29;100956.13;;;14.04;100.00
72925;BME280;61070;50.794;7.054;2022-10-16T08:14:54;100954.44;;;14.00;100.00
72925;BME280;61070;50.794;7.054;2022-10-16T08:17:19;100958.84;;;14.01;100.00
72925;BME280;61070;50.794;7.054;2022-10-16T08:19:46;100964.09;;;14.06;100.00
72925;BME280;61070;50.794;7.054;2022-10-16T08:22:12;100963.16;;;14.08;100.00
72925;BME280;61070;50.794;7.054;2022-10-16T08:24:37;100961.19;;;14.16;100.00
72925;BME280;61070;50.794;7.054;2022-10-16T08:27:03;100961.84;;;14.27;100.00
72925;BME280;61070;50.794;7.054;2022-10-16T08:29:28;100972.41;;;14.31;100.00
72925;BME280;61070;50.794;7.054;2022-10-16T08:31:53;100971.25;;;14.42;100.00
72925;BME280;61070;50.794;7.054;2022-10-16T08:34:19;100972.88;;;14.51;100.00
72925;BME280;61070;50.794;7.054;2022-10-16T08:36:44;100976.94;;;14.66;99.66
72925;BME280;61070;50.794;7.054;2022-10-16T08:39:09;100976.72;;;14.75;98.46
72925;BME280;61070;50.794;7.054;2022-10-16T08:42:04;100979.13;;;14.85;97.41
72925;BME280;61070;50.794;7.054;2022-10-16T08:47:19;100990.09;;;15.09;95.98
72925;BME280;61070;50.794;7.054;2022-10-16T08:50:00;100989.59;;;15.27;94.27
72925;BME280;61070;50.794;7.054;2022-10-16T08:52:33;100997.69;;;15.24;94.28
72925;BME280;61070;50.794;7.054;2022-10-16T08:55:00;100993.19;;;15.26;92.79
72925;BME280;61070;50.794;7.054;2022-10-16T08:57:26;100987.06;;;15.23;93.09
72925;BME280;61070;50.794;7.054;2022-10-16T08:59:52;100992.16;;;15.32;92.46
72925;BME280;61070;50.794;7.054;2022-10-16T09:05:38;100998.63;;;15.56;91.24
72925;BME280;61070;50.794;7.054;2022-10-16T09:10:59;101008.81;;;15.74;89.88
72925;BME280;61070;50.794;7.054;2022-10-16T09:13:38;101009.72;;;15.75;89.74
72925;BME280;61070;50.794;7.054;2022-10-16T09:21:21;101006.69;;;15.87;88.82
72925;BME280;61070;50.794;7.054;2022-10-16T09:23:48;101011.16;;;15.86;88.01
72925;BME280;61070;50.794;7.054;2022-10-16T09:26:14;101015.53;;;15.89;88.12
72925;BME280;61070;50.794;7.054;2022-10-16T09:28:41;101015.28;;;15.98;87.89
72925;BME280;61070;50.794;7.054;2022-10-16T09:31:14;101021.94;;;16.13;86.79
72925;BME280;61070;50.794;7.054;2022-10-16T09:33:41;101017.56;;;16.10;85.79
72925;BME280;61070;50.794;7.054;2022-10-16T09:36:08;101019.72;;;16.27;85.01
72925;BME280;61070;50.794;7.054;2022-10-16T09:38:36;101014.94;;;16.38;82.84
72925;BME280;61070;50.794;7.054;2022-10-16T09:41:17;101016.16;;;16.56;83.17
72925;BME280;61070;50.794;7.054;2022-10-16T09:44:00;101007.72;;;16.70;82.66
72925;BME280;61070;50.794;7.054;2022-10-16T09:46:31;101000.94;;;16.87;80.17
72925;BME280;61070;50.794;7.054;2022-10-16T09:48:58;101017.06;;;16.84;79.75
72925;BME280;61070;50.794;7.054;2022-10-16T09:51:28;101011.81;;;16.81;80.20
72925;BME280;61070;50.794;7.054;2022-10-16T09:53:56;101011.75;;;17.09;79.72
72925;BME280;61070;50.794;7.054;2022-10-16T09:56:41;101019.03;;;17.06;79.08
72925;BME280;61070;50.794;7.054;2022-10-16T09:59:22;101016.16;;;17.12;77.53
72925;BME280;61070;50.794;7.054;2022-10-16T10:01:56;101018.66;;;17.16;76.74
72925;BME280;61070;50.794;7.054;2022-10-16T10:04:24;101018.25;;;17.29;77.17
72925;BME280;61070;50.794;7.054;2022-10-16T10:06:55;101014.38;;;17.37;76.57
72925;BME280;61070;50.794;7.054;2022-10-16T10:09:26;101006.53;;;17.58;73.95
72925;BME280;61070;50.794;7.054;2022-10-16T10:11:55;101002.50;;;17.71;74.68
72925;BME280;61070;50.794;7.054;2022-10-16T10:14:27;100997.69;;;17.81;71.45
72925;BME280;61070;50.794;7.054;2022-10-16T10:19:51;101000.72;;;18.18;67.80
72925;BME280;61070;50.794;7.054;2022-10-16T10:22:21;100996.41;;;18.14;69.02
72925;BME280;61070;50.794;7.054;2022-10-16T10:27:53;100988.66;;;18.52;67.95
72925;BME280;61070;50.794;7.054;2022-10-16T10:30:29;100985.38;;;18.67;65.62
72925;BME280;61070;50.794;7.054;2022-10-16T10:43:41;100996.34;;;19.25;61.45
72925;BME280;61070;50.794;7.054;2022-10-16T10:46:14;101001.34;;;19.34;61.18
72925;BME280;61070;50.794;7.054;2022-10-16T10:48:54;100994.34;;;19.30;61.71
72925;BME280;61070;50.794;7.054;2022-10-16T10:54:22;101000.91;;;19.23;61.33
72925;BME280;61070;50.794;7.054;2022-10-16T10:57:01;100996.59;;;18.99;61.81
72925;BME280;61070;50.794;7.054;2022-10-16T11:02:37;100991.53;;;18.91;62.35
72925;BME280;61070;50.794;7.054;2022-10-16T11:07:57;101000.50;;;19.12;60.31
72925;BME280;61070;50.794;7.054;2022-10-16T11:10:40;101012.31;;;19.08;60.82
72925;BME280;61070;50.794;7.054;2022-10-16T11:15:47;101012.19;;;19.11;61.03
72925;BME280;61070;50.794;7.054;2022-10-16T11:18:19;101003.31;;;19.09;60.03
72925;BME280;61070;50.794;7.054;2022-10-16T11:20:53;101015.66;;;18.93;60.04
72925;BME280;61070;50.794;7.054;2022-10-16T11:23:28;101004.22;;;18.87;59.80
72925;BME280;61070;50.794;7.054;2022-10-16T11:26:11;101003.97;;;18.94;59.45
72925;BME280;61070;50.794;7.054;2022-10-16T11:28:45;101008.19;;;19.21;59.43
72925;BME280;61070;50.794;7.054;2022-10-16T11:31:24;101001.63;;;19.28;59.89
72925;BME280;61070;50.794;7.054;2022-10-16T11:36:26;101003.31;;;19.51;58.56
72925;BME280;61070;50.794;7.054;2022-10-16T11:39:11;101008.44;;;19.35;58.78
72925;BME280;61070;50.794;7.054;2022-10-16T11:41:49;101006.16;;;19.46;59.18
72925;BME280;61070;50.794;7.054;2022-10-16T11:44:36;101011.59;;;19.25;60.24
72925;BME280;61070;50.794;7.054;2022-10-16T11:49:31;101013.13;;;19.10;61.06
72925;BME280;61070;50.794;7.054;2022-10-16T11:57:13;101021.09;;;19.33;58.41
72925;BME280;61070;50.794;7.054;2022-10-16T11:59:45;101023.78;;;19.33;59.09
72925;BME280;61070;50.794;7.054;2022-10-16T12:08:06;101011.97;;;19.78;59.52
72925;BME280;61070;50.794;7.054;2022-10-16T12:10:33;101017.97;;;20.03;57.99
72925;BME280;61070;50.794;7.054;2022-10-16T12:13:03;101021.75;;;19.99;56.65
72925;BME280;61070;50.794;7.054;2022-10-16T12:15:31;101010.72;;;20.05;57.39
72925;BME280;61070;50.794;7.054;2022-10-16T12:17:57;101015.44;;;20.00;57.07
72925;BME280;61070;50.794;7.054;2022-10-16T12:22:54;101011.16;;;19.96;56.35
72925;BME280;61070;50.794;7.054;2022-10-16T12:25:37;101002.31;;;19.74;57.49
72925;BME280;61070;50.794;7.054;2022-10-16T12:28:21;101012.25;;;19.72;58.74
72925;BME280;61070;50.794;7.054;2022-10-16T12:30:56;101011.66;;;19.65;57.70
72925;BME280;61070;50.794;7.054;2022-10-16T12:33:26;101010.44;;;19.72;57.24
72925;BME280;61070;50.794;7.054;2022-10-16T12:35:52;101017.41;;;19.76;58.21
72925;BME280;61070;50.794;7.054;2022-10-16T12:41:24;101019.25;;;19.76;56.85
72925;BME280;61070;50.794;7.054;2022-10-16T12:43:51;101016.63;;;19.74;58.44
72925;BME280;61070;50.794;7.054;2022-10-16T12:48:43;101005.00;;;19.74;58.51
72925;BME280;61070;50.794;7.054;2022-10-16T12:51:23;100996.28;;;19.88;58.81
72925;BME280;61070;50.794;7.054;2022-10-16T12:56:44;100990.34;;;20.00;58.13
72925;BME280;61070;50.794;7.054;2022-10-16T12:59:32;100998.19;;;20.04;58.48
72925;BME280;61070;50.794;7.054;2022-10-16T13:10:34;101004.69;;;19.80;60.66
72925;BME280;61070;50.794;7.054;2022-10-16T13:13:31;101009.63;;;19.70;61.44
72925;BME280;61070;50.794;7.054;2022-10-16T13:16:19;101006.19;;;19.67;62.06
72925;BME280;61070;50.794;7.054;2022-10-16T13:18:58;101005.94;;;19.73;62.72
72925;BME280;61070;50.794;7.054;2022-10-16T13:21:42;101007.69;;;19.74;62.55
72925;BME280;61070;50.794;7.054;2022-10-16T13:24:13;101006.19;;;19.67;62.26
72925;BME280;61070;50.794;7.054;2022-10-16T13:29:45;101010.09;;;19.80;62.71
72925;BME280;61070;50.794;7.054;2022-10-16T13:32:17;101015.50;;;19.99;62.91
72925;BME280;61070;50.794;7.054;2022-10-16T13:34:46;101015.38;;;20.21;62.55
72925;BME280;61070;50.794;7.054;2022-10-16T13:37:20;101017.09;;;20.42;61.30
72925;BME280;61070;50.794;7.054;2022-10-16T13:39:46;101022.47;;;20.42;61.01
72925;BME280;61070;50.794;7.054;2022-10-16T13:42:22;101025.03;;;20.45;61.52
72925;BME280;61070;50.794;7.054;2022-10-16T13:44:52;101013.31;;;20.46;61.53
72925;BME280;61070;50.794;7.054;2022-10-16T13:47:20;101012.28;;;20.49;61.90
72925;BME280;61070;50.794;7.054;2022-10-16T13:49:46;101004.09;;;20.52;60.20
72925;BME280;61070;50.794;7.054;2022-10-16T13:52:20;101007.31;;;20.58;61.59
72925;BME280;61070;50.794;7.054;2022-10-16T13:54:45;101015.19;;;20.63;61.37
72925;BME280;61070;50.794;7.054;2022-10-16T13:57:14;101008.63;;;20.69;60.70
72925;BME280;61070;50.794;7.054;2022-10-16T13:59:39;101004.91;;;20.71;60.46
72925;BME280;61070;50.794;7.054;2022-10-16T14:02:27;101013.16;;;20.68;60.86
72925;BME280;61070;50.794;7.054;2022-10-16T14:04:54;101012.34;;;20.66;60.36
72925;BME280;61070;50.794;7.054;2022-10-16T14:07:24;101012.94;;;20.73;60.42
72925;BME280;61070;50.794;7.054;2022-10-16T14:09:50;101002.72;;;20.79;60.45
72925;BME280;61070;50.794;7.054;2022-10-16T14:12:16;101014.09;;;20.67;59.73
72925;BME280;61070;50.794;7.054;2022-10-16T14:14:47;101014.25;;;20.64;60.60
72925;BME280;61070;50.794;7.054;2022-10-16T14:17:25;101019.25;;;20.72;60.30
72925;BME280;61070;50.794;7.054;2022-10-16T14:19:54;101017.28;;;20.75;60.78
72925;BME280;61070;50.794;7.054;2022-10-16T14:24:57;101009.75;;;20.64;60.77
72925;BME280;61070;50.794;7.054;2022-10-16T14:27:34;101007.13;;;20.44;61.48
72925;BME280;61070;50.794;7.054;2022-10-16T14:30:21;101002.75;;;20.42;62.04
72925;BME280;61070;50.794;7.054;2022-10-16T14:33:04;100999.59;;;20.32;62.16